East Jordan, MI

12:24 AM EDT on August 05, 2015 (GMT -0400)
3.4 mi SSW of Boyne City | | Change Station
CLOSE
Current Station
Personal Weather Station
Location: Boyne City, MI
Elevation: 820 ft
Nearby Weather Stations

Elev 820 ft 45.17 °N, 85.04 °W | Updated 12 seconds ago

Mostly Cloudy
Mostly Cloudy
58.7 °F
Feels Like 58.7 °F
N
0.0
Wind Variable Wind from NNW
Gusts 0.0 mph

Today
High -- | Low -- °F
--% Chance of Precip.
Yesterday
High -- | Low -- °F
Precip. -- in
6:29 AM 9:02 PM
Waning Gibbous, 71% visible
Pressure 30.04 in
Visibility 10.0 miles
Clouds Scattered Clouds 3800 ft
Overcast 5000 ft
Dew Point 54 °F
Humidity 83%
Rainfall 0.00 in
Snow Depth Not available.
UV 0 out of 12
Pollen 6.30 out of 12
Air Quality Not available.
Flu Activity Not available.
METAR KCVX 050415Z AUTO 31010G15KT 10SM SCT038 OVC050 16/11 A3004 RMK AO2 T01630105

More Conditions Fewer Conditions

Pressure 30.04 in
Visibility 10.0 miles
Clouds Scattered Clouds 3800 ft
Overcast 5000 ft
Dew Point 54 °F
Humidity 83%
Rainfall 0.00 in
Snow Depth Not available.
UV 0 out of 12
Pollen 6.30 out of 12
Air Quality Not available.
Flu Activity Not available.
METAR KCVX 050415Z AUTO 31010G15KT 10SM SCT038 OVC050 16/11 A3004 RMK AO2 T01630105

More Conditions Fewer Conditions

Nowcast | as of 12:00 am EDT on August 5, 2015

At 1 am...clear. Isolated showers. Temperature 59. Northwest winds 10 mph. At 3 am...mostly clear. Temperature 57. Northwest winds 8 mph. At 5 am...mostly clear. Temperature 57. Northwest winds 7 mph. At 7 am...mostly clear. Temperature 57. Northwest winds 7 mph.

×

10-Day Weather Forecast

×

Almanac

Astronomy

Aug. 05, 2015 Rise Set
Actual Time
Civil Twilight
Nautical Twilight
Astronomical Twilight
Moon
Length of Visible Light
Length of Day
Tomorrow will be .
, % of the Moon is Illuminated

Today's Extremes

State Highs State Lows

Community

WunderPhotos

Upload Photos

1,844,093 photos uploaded!

WunderBlogs® & News

Nearby

Air Quality

  Air Quality AQ Index Pollutant
Not available.

Snow Depth

Station Depth Elevation

Earthquake Activity

City Distance Mag. Time & Date
Minimum magnitude displayed is 2.5.

Coastal Water Temperatures

Place Temperature

Stations

Nearby Weather Stations

Station Location Temp. Windchill Dew Point Humidity Wind Precip. Elev Updated Type